Terminal Aerodrome Forecast
Issued by NWS

Home | Current Version | Previous Version | Text Only | Print | Product List | Glossary On
Versions: 1 2 3 4 5 6 7 8 9 10 11 12 13 14 15 16 17 18 19 20
000
FTUS44 KCRP 260529
TAFALI
TAF
KALI 260529Z 2606/2706 15011KT P6SM VCSH SCT025 BKN150
      TEMPO 2606/2609 6SM -RA BR BKN025 OVC100
     FM260900 14005KT P6SM VCSH BKN015
     FM261600 14010KT P6SM SCT025 BKN035 OVC150
     FM262000 14014G20KT P6SM VCTS BKN040CB OVC150
     FM270300 14012KT P6SM SCT025 BKN030=

USA.gov is the U.S. government's official web portal to all federal, state and local government web resources and services.